Time;durP1;ratioP1;P1;durP2;ratioP2;P2;SDS_P1;SDS_P2;PMS_P1;PMS_P2;Temp;Humidity;BMP_temperature;BMP_pressure;BME280_temperature;BME280_humidity;BME280_pressure;Samples;Min_cycle;Max_cycle;Signal;HPM_P1;HPM_P2
2022/10/10 00:00:09;;;;;;;11.53;8.83;;;;;;;8.63;80.40;100206.78;1719327;82;20981;-67
2022/10/10 00:02:36;;;;;;;10.45;8.65;;;;;;;8.60;80.48;100214.20;1719330;83;20974;-68
2022/10/10 00:05:06;;;;;;;13.78;8.18;;;;;;;8.57;80.57;100212.67;1719415;82;20985;-67
2022/10/10 00:07:32;;;;;;;13.20;8.28;;;;;;;8.55;80.63;100209.80;1719303;82;21155;-67
2022/10/10 00:09:59;;;;;;;9.73;8.13;;;;;;;8.51;80.68;100211.89;1719251;82;20889;-68
2022/10/10 00:12:27;;;;;;;10.80;9.03;;;;;;;8.49;80.72;100215.66;1713777;82;21519;-68
2022/10/10 00:14:54;;;;;;;9.55;7.53;;;;;;;8.46;80.88;100207.49;1719372;83;20993;-68
2022/10/10 00:17:22;;;;;;;9.23;7.95;;;;;;;8.44;80.94;100217.41;1719354;82;20926;-66
2022/10/10 00:19:50;;;;;;;9.78;7.28;;;;;;;8.44;81.00;100209.94;1719345;82;21444;-67
2022/10/10 00:22:17;;;;;;;10.80;8.00;;;;;;;8.43;81.11;100214.39;1719152;82;20932;-67
2022/10/10 00:24:44;;;;;;;11.18;7.65;;;;;;;8.44;81.35;100214.75;1719406;82;21491;-67
2022/10/10 00:27:12;;;;;;;8.25;6.78;;;;;;;8.43;81.36;100208.25;1719236;82;20942;-66
2022/10/10 00:29:39;;;;;;;8.15;6.60;;;;;;;8.40;81.26;100214.67;1720447;82;21056;-66
2022/10/10 00:32:07;;;;;;;7.65;6.50;;;;;;;8.38;81.20;100214.45;1752798;80;20988;-67
2022/10/10 00:34:34;;;;;;;8.80;6.75;;;;;;;8.37;81.44;100216.27;1745874;80;20970;-67
2022/10/10 00:37:03;;;;;;;9.78;6.60;;;;;;;8.39;81.69;100209.03;1727264;81;20863;-67
2022/10/10 00:39:30;;;;;;;6.40;5.78;;;;;;;8.42;81.91;100211.38;1709442;83;21460;-67
2022/10/10 00:41:56;;;;;;;9.08;6.47;;;;;;;8.41;81.94;100215.03;1721927;81;20975;-66
2022/10/10 00:44:23;;;;;;;7.50;6.20;;;;;;;8.40;82.03;100210.69;1721819;83;21257;-67
2022/10/10 00:46:50;;;;;;;7.83;5.80;;;;;;;8.38;82.03;100213.97;1721611;81;21010;-67
2022/10/10 00:49:23;;;;;;;7.42;6.15;;;;;;;8.38;82.19;100211.33;1722100;81;21593;-67
2022/10/10 00:51:53;;;;;;;7.72;5.97;;;;;;;8.36;82.12;100207.98;1721799;81;20986;-67
2022/10/10 00:54:20;;;;;;;7.67;6.00;;;;;;;8.33;82.00;100201.62;1721982;83;20988;-68
2022/10/10 00:56:54;;;;;;;6.15;5.58;;;;;;;8.31;82.13;100200.93;1721772;81;21836;-67
2022/10/10 00:59:20;;;;;;;8.78;6.17;;;;;;;8.34;82.33;100203.80;1721822;81;20946;-66
2022/10/10 01:01:47;;;;;;;8.20;6.28;;;;;;;8.33;82.42;100204.27;1721845;83;21082;-67
2022/10/10 01:04:43;;;;;;;6.50;5.50;;;;;;;8.32;82.30;100206.56;1721871;81;20950;-67
2022/10/10 01:07:16;;;;;;;7.85;5.87;;;;;;;8.32;82.38;100203.91;1721700;81;21049;-66
2022/10/10 01:09:43;;;;;;;6.10;5.40;;;;;;;8.30;82.43;100196.59;1721886;83;21076;-67
2022/10/10 01:12:55;;;;;;;7.08;5.45;;;;;;;8.28;82.34;100198.55;1721800;81;21517;-66
2022/10/10 01:15:47;;;;;;;11.75;6.12;;;;;;;8.28;82.46;100195.91;1721930;81;20906;-66
2022/10/10 01:18:27;;;;;;;8.90;5.97;;;;;;;8.26;82.44;100192.53;1721671;81;20951;-67
2022/10/10 01:21:17;;;;;;;8.65;6.12;;;;;;;8.23;82.48;100194.13;1721938;81;21032;-67
2022/10/10 01:24:04;;;;;;;5.90;5.30;;;;;;;8.24;82.71;100202.92;1720998;81;21368;-67
2022/10/10 01:27:05;;;;;;;6.80;5.60;;;;;;;8.24;82.82;100197.11;1670506;83;20895;-67
2022/10/10 01:29:41;;;;;;;7.12;5.70;;;;;;;8.22;82.77;100205.69;1722083;81;20906;-66
2022/10/10 01:32:23;;;;;;;7.53;6.15;;;;;;;8.17;82.73;100208.40;1721992;81;20965;-67
2022/10/10 01:35:13;;;;;;;9.05;6.22;;;;;;;8.15;82.69;100211.20;1703802;81;21009;-67
2022/10/10 01:37:48;;;;;;;7.00;5.85;;;;;;;8.13;82.70;100219.78;1721656;81;21382;-67
2022/10/10 01:40:35;;;;;;;9.88;6.72;;;;;;;8.11;82.76;100225.68;1721923;81;21021;-67
2022/10/10 01:43:03;;;;;;;7.28;6.00;;;;;;;8.08;82.79;100224.66;1721908;81;20874;-67
2022/10/10 01:45:30;;;;;;;6.53;5.85;;;;;;;8.05;82.74;100226.25;1722054;81;21444;-67
2022/10/10 01:48:01;;;;;;;7.03;5.58;;;;;;;8.01;82.70;100220.85;1721899;81;20998;-67
2022/10/10 01:50:28;;;;;;;8.33;4.95;;;;;;;7.97;82.72;100220.78;1721931;83;21196;-67
2022/10/10 01:53:12;;;;;;;6.72;5.20;;;;;;;7.95;82.75;100226.72;1722107;81;21009;-67
2022/10/10 01:56:01;;;;;;;6.40;5.17;;;;;;;7.92;82.88;100223.85;1722371;81;20998;-67
2022/10/10 01:58:41;;;;;;;7.97;5.72;;;;;;;7.90;82.93;100227.61;1722025;81;21437;-66
2022/10/10 02:01:25;;;;;;;5.35;4.55;;;;;;;7.85;83.00;100229.80;1722224;81;20942;-67
2022/10/10 02:04:03;;;;;;;8.23;4.90;;;;;;;7.84;83.13;100236.09;1722390;81;21256;-68
2022/10/10 02:06:45;;;;;;;7.00;5.10;;;;;;;7.84;83.27;100242.71;1721442;81;21077;-67
2022/10/10 02:09:20;;;;;;;5.72;4.78;;;;;;;7.81;83.32;100238.52;1721733;81;21291;-67
2022/10/10 02:11:47;;;;;;;8.78;5.00;;;;;;;7.79;83.30;100237.83;1722242;81;26405;-67
2022/10/10 02:14:21;;;;;;;5.15;4.22;;;;;;;7.80;83.43;100238.63;1722061;81;21035;-67
2022/10/10 02:16:50;;;;;;;4.22;3.83;;;;;;;7.77;83.43;100238.94;1721924;81;21096;-68
2022/10/10 02:19:18;;;;;;;4.92;4.33;;;;;;;7.73;83.48;100242.33;1721988;81;21511;-67
2022/10/10 02:21:46;;;;;;;4.55;4.15;;;;;;;7.74;83.70;100246.66;1722057;83;20997;-67
2022/10/10 02:24:13;;;;;;;4.22;3.85;;;;;;;7.77;83.96;100248.20;1722028;81;20899;-67
2022/10/10 02:26:42;;;;;;;6.80;4.30;;;;;;;7.76;84.00;100246.52;1725690;83;20894;-67
2022/10/10 02:29:12;;;;;;;4.58;4.12;;;;;;;7.74;83.82;100248.47;1721775;83;21759;-67
2022/10/10 02:31:56;;;;;;;5.22;4.17;;;;;;;7.72;83.82;100243.77;1715817;82;20880;-67
2022/10/10 02:34:27;;;;;;;4.15;3.75;;;;;;;7.68;83.64;100251.64;1744112;81;21385;-67
2022/10/10 02:36:58;;;;;;;6.85;4.87;;;;;;;7.63;83.68;100259.98;1747708;81;21485;-67
2022/10/10 02:39:29;;;;;;;5.37;4.62;;;;;;;7.61;83.78;100258.45;1738030;81;21025;-67
2022/10/10 02:41:55;;;;;;;5.08;3.85;;;;;;;7.57;83.76;100264.48;1747925;81;21153;-67
2022/10/10 02:44:21;;;;;;;5.47;4.55;;;;;;;7.53;83.67;100265.73;1747480;81;21488;-67
2022/10/10 02:46:49;;;;;;;5.30;4.47;;;;;;;7.53;83.70;100271.02;1747841;81;21032;-67
2022/10/10 02:49:27;;;;;;;6.70;5.12;;;;;;;7.52;83.67;100275.11;1737183;81;20927;-67
2022/10/10 02:51:53;;;;;;;5.05;4.58;;;;;;;7.48;83.65;100277.20;1715835;82;20894;-67
2022/10/10 02:54:19;;;;;;;6.17;5.30;;;;;;;7.45;83.65;100275.66;1738870;81;21535;-67
2022/10/10 02:56:46;;;;;;;6.97;5.00;;;;;;;7.42;83.58;100276.39;1747647;81;21461;-68
2022/10/10 02:59:12;;;;;;;9.33;4.67;;;;;;;7.39;83.52;100274.84;1737432;81;20906;-67
2022/10/10 03:01:39;;;;;;;5.37;4.87;;;;;;;7.36;83.63;100280.40;1741402;81;20970;-68
2022/10/10 03:04:05;;;;;;;5.47;4.97;;;;;;;7.36;83.73;100271.61;1747697;81;20998;-68
2022/10/10 03:06:33;;;;;;;9.30;5.53;;;;;;;7.37;83.84;100279.92;1747663;81;21239;-67
2022/10/10 03:09:00;;;;;;;5.70;5.15;;;;;;;7.38;84.00;100278.93;1743015;81;21420;-67
2022/10/10 03:11:26;;;;;;;11.38;6.67;;;;;;;7.39;84.06;100280.14;1738262;81;21049;-67
2022/10/10 03:13:53;;;;;;;9.65;7.83;;;;;;;7.42;84.22;100273.75;1747510;81;20910;-67
2022/10/10 03:16:19;;;;;;;9.78;7.75;;;;;;;7.48;84.41;100277.20;1747603;81;20946;-67
2022/10/10 03:18:46;;;;;;;8.28;6.85;;;;;;;7.53;84.56;100280.30;1743304;81;21908;-67
2022/10/10 03:21:12;;;;;;;14.23;10.30;;;;;;;7.59;84.67;100286.36;1747519;81;20923;-67
2022/10/10 03:23:39;;;;;;;21.48;14.20;;;;;;;7.66;84.72;100286.21;1747577;81;20918;-67
2022/10/10 03:26:05;;;;;;;19.12;13.25;;;;;;;7.74;84.86;100293.02;1747609;81;20890;-67
2022/10/10 03:28:32;;;;;;;28.92;16.87;;;;;;;7.82;84.92;100285.72;1744261;81;20887;-67
2022/10/10 03:30:59;;;;;;;25.35;15.48;;;;;;;7.89;84.83;100290.83;1739402;80;21153;-67
2022/10/10 03:33:25;;;;;;;29.42;17.92;;;;;;;7.93;84.87;100286.92;1748038;81;20973;-67
2022/10/10 03:35:52;;;;;;;29.85;18.20;;;;;;;7.99;84.93;100281.09;1751256;80;20994;-67
2022/10/10 03:38:18;;;;;;;34.35;19.15;;;;;;;8.02;85.01;100280.36;1748931;80;21805;-67
2022/10/10 03:40:45;;;;;;;34.45;17.52;;;;;;;8.09;85.00;100285.46;1748242;80;20950;-67
2022/10/10 03:43:13;;;;;;;29.87;17.35;;;;;;;8.15;84.93;100284.56;1748540;80;21230;-67
2022/10/10 03:45:44;;;;;;;28.52;17.20;;;;;;;8.17;84.90;100282.13;1747969;81;20879;-67
2022/10/10 03:48:10;;;;;;;30.17;16.97;;;;;;;8.22;84.91;100281.23;1749597;81;20986;-68
2022/10/10 03:50:38;;;;;;;33.75;20.57;;;;;;;8.26;84.75;100282.66;1746842;81;20938;-68
2022/10/10 03:53:05;;;;;;;33.10;19.20;;;;;;;8.27;84.64;100276.39;1750914;80;21041;-67
2022/10/10 03:55:31;;;;;;;35.48;20.62;;;;;;;8.34;84.69;100281.48;1751164;80;21334;-67
2022/10/10 03:57:58;;;;;;;27.27;18.45;;;;;;;8.37;84.56;100287.84;1750663;81;20985;-67
2022/10/10 04:00:24;;;;;;;26.68;17.27;;;;;;;8.41;84.44;100291.92;1747524;80;21901;-67
2022/10/10 04:02:52;;;;;;;25.92;16.67;;;;;;;8.43;84.25;100287.31;1746059;80;20946;-67
2022/10/10 04:05:19;;;;;;;22.13;15.15;;;;;;;8.45;84.08;100297.28;1750417;80;21459;-67
2022/10/10 04:07:45;;;;;;;22.22;14.90;;;;;;;8.47;84.02;100303.28;1751476;81;21519;-67
2022/10/10 04:10:11;;;;;;;26.52;17.20;;;;;;;8.51;83.84;100307.36;1748537;80;20898;-68
2022/10/10 04:12:39;;;;;;;24.05;17.73;;;;;;;8.54;83.52;100310.22;1751162;81;20882;-68
2022/10/10 04:15:07;;;;;;;24.70;15.93;;;;;;;8.55;83.47;100305.28;1749537;80;20938;-66
2022/10/10 04:17:35;;;;;;;19.10;14.07;;;;;;;8.55;83.32;100311.39;1750909;81;21013;-67
2022/10/10 04:20:02;;;;;;;16.77;14.20;;;;;;;8.54;83.22;100314.20;1747980;80;21251;-67
2022/10/10 04:22:28;;;;;;;17.92;14.23;;;;;;;8.52;83.13;100318.33;1751195;80;20981;-68
2022/10/10 04:24:55;;;;;;;16.20;12.80;;;;;;;8.49;83.01;100319.92;1751402;81;21009;-67
2022/10/10 04:27:21;;;;;;;20.48;13.03;;;;;;;8.44;83.00;100316.84;1750377;80;21595;-68
2022/10/10 04:29:48;;;;;;;18.77;14.00;;;;;;;8.42;83.05;100313.98;1748711;81;20937;-68
2022/10/10 04:32:14;;;;;;;15.85;12.88;;;;;;;8.41;83.13;100313.61;1749151;80;21116;-68
2022/10/10 04:34:41;;;;;;;16.02;12.80;;;;;;;8.41;83.14;100320.25;1752229;80;20851;-68
2022/10/10 04:37:08;;;;;;;15.23;13.32;;;;;;;8.40;83.15;100315.91;1752486;80;20894;-67
2022/10/10 04:39:34;;;;;;;18.42;13.58;;;;;;;8.36;83.10;100324.64;1752444;80;21060;-67
2022/10/10 04:42:01;;;;;;;17.27;13.50;;;;;;;8.30;83.15;100318.54;1752351;80;20954;-69
2022/10/10 04:44:28;;;;;;;17.10;13.78;;;;;;;8.28;83.20;100321.82;1752478;80;21190;-68
2022/10/10 04:46:55;;;;;;;18.45;14.18;;;;;;;8.28;83.32;100324.47;1752487;80;20966;-67
2022/10/10 04:49:22;;;;;;;19.00;14.63;;;;;;;8.26;83.39;100325.07;1752911;80;20895;-68
2022/10/10 04:51:48;;;;;;;22.50;15.25;;;;;;;8.28;83.55;100323.15;1751484;81;21124;-67
2022/10/10 04:54:15;;;;;;;25.80;16.77;;;;;;;8.31;83.65;100326.02;1752260;80;20941;-69
2022/10/10 04:56:41;;;;;;;23.32;16.67;;;;;;;8.32;83.67;100321.89;1749931;80;21408;-67
2022/10/10 04:59:09;;;;;;;23.22;16.42;;;;;;;8.33;83.74;100326.70;1752143;81;21035;-67
2022/10/10 05:01:35;;;;;;;28.73;17.10;;;;;;;8.32;83.71;100320.56;1752076;81;21027;-67
2022/10/10 05:04:01;;;;;;;22.77;17.42;;;;;;;8.33;83.71;100323.58;1744974;80;21079;-69
2022/10/10 05:06:28;;;;;;;29.35;19.00;;;;;;;8.37;83.66;100320.99;1737048;80;20898;-61
2022/10/10 05:08:55;;;;;;;23.52;18.17;;;;;;;8.35;83.61;100313.67;1752312;80;21154;-63
2022/10/10 05:11:22;;;;;;;26.75;16.65;;;;;;;8.36;83.75;100317.16;1752246;80;20969;-64
2022/10/10 05:13:49;;;;;;;23.98;17.92;;;;;;;8.40;84.28;100313.25;1751936;80;21425;-67
2022/10/10 05:16:17;;;;;;;23.15;16.80;;;;;;;8.43;84.55;100318.28;1748493;80;20978;-68
2022/10/10 05:18:43;;;;;;;23.38;17.02;;;;;;;8.51;84.81;100318.45;1742174;82;21037;-69
2022/10/10 05:21:10;;;;;;;19.73;16.15;;;;;;;8.58;84.64;100321.73;1748603;82;21162;-69
2022/10/10 05:23:40;;;;;;;22.93;15.95;;;;;;;8.59;84.42;100323.42;1744194;81;20893;-69
2022/10/10 05:26:07;;;;;;;20.75;16.00;;;;;;;8.61;84.44;100320.62;1745721;82;20907;-69
2022/10/10 05:28:35;;;;;;;23.90;16.05;;;;;;;8.63;84.51;100318.66;1746672;80;21108;-68
2022/10/10 05:31:02;;;;;;;19.12;15.75;;;;;;;8.69;84.54;100326.92;1749650;80;20943;-68
2022/10/10 05:33:31;;;;;;;21.82;16.17;;;;;;;8.76;84.51;100321.89;1727736;81;21256;-68
2022/10/10 05:36:10;;;;;;;17.40;14.95;;;;;;;8.77;84.35;100324.91;1735475;81;21493;-69
2022/10/10 05:38:38;;;;;;;16.57;14.28;;;;;;;8.77;84.34;100332.86;1735045;81;20968;-68
2022/10/10 05:41:05;;;;;;;19.95;13.28;;;;;;;8.81;84.26;100334.77;1721786;82;20971;-69
2022/10/10 05:43:32;;;;;;;18.23;14.10;;;;;;;8.81;84.23;100335.61;1737445;82;20989;-69
2022/10/10 05:45:59;;;;;;;17.40;14.60;;;;;;;8.87;84.36;100332.86;1736487;81;21463;-69
2022/10/10 05:48:25;;;;;;;17.05;13.58;;;;;;;8.90;84.28;100333.44;1733546;81;20951;-69
2022/10/10 05:50:54;;;;;;;18.62;12.65;;;;;;;8.94;84.19;100332.68;1731449;81;21476;-69
2022/10/10 05:53:22;;;;;;;14.25;12.85;;;;;;;8.96;83.94;100336.02;1744509;81;21078;-69
2022/10/10 05:55:49;;;;;;;14.75;12.85;;;;;;;8.96;83.60;100341.33;1741401;82;21028;-68
2022/10/10 05:58:15;;;;;;;16.93;14.60;;;;;;;8.99;83.42;100343.71;1741474;81;21950;-68
2022/10/10 06:00:44;;;;;;;17.27;15.03;;;;;;;9.02;83.18;100340.78;1743101;81;20922;-69
2022/10/10 06:03:12;;;;;;;18.23;14.55;;;;;;;9.08;83.00;100349.49;1733191;81;21645;-69
2022/10/10 06:05:39;;;;;;;16.10;14.40;;;;;;;9.14;82.71;100346.29;1735561;81;20979;-70
2022/10/10 06:08:07;;;;;;;18.92;13.80;;;;;;;9.17;82.59;100352.66;1748033;81;20984;-65
2022/10/10 06:10:42;;;;;;;15.90;13.68;;;;;;;9.22;82.40;100357.05;1746740;82;21837;-69
2022/10/10 06:13:11;;;;;;;13.95;11.97;;;;;;;9.25;82.19;100355.45;1739168;81;20988;-68
2022/10/10 06:15:39;;;;;;;13.48;12.18;;;;;;;9.34;82.25;100355.91;1731372;81;20925;-69
2022/10/10 06:18:06;;;;;;;14.43;12.30;;;;;;;9.44;81.92;100355.41;1732960;82;20987;-69
2022/10/10 06:20:37;;;;;;;14.18;12.78;;;;;;;9.49;81.61;100359.80;1741809;81;20917;-68
2022/10/10 06:23:03;;;;;;;18.98;12.60;;;;;;;9.66;81.62;100360.41;1727683;82;21429;-67
2022/10/10 06:25:32;;;;;;;16.02;11.38;;;;;;;9.82;81.25;100362.48;1735845;82;21367;-68
2022/10/10 06:27:58;;;;;;;13.53;11.15;;;;;;;9.90;80.58;100362.59;1730841;81;20982;-67
2022/10/10 06:30:25;;;;;;;12.13;10.82;;;;;;;9.93;80.27;100354.34;1728104;82;21016;-68
2022/10/10 06:32:52;;;;;;;14.55;11.70;;;;;;;10.04;80.10;100359.97;1725472;82;20938;-67
2022/10/10 06:35:19;;;;;;;12.90;10.95;;;;;;;10.11;79.70;100359.72;1761506;80;21251;-67
2022/10/10 06:37:46;;;;;;;14.87;11.48;;;;;;;10.14;79.19;100353.62;1738598;81;20976;-70
2022/10/10 06:40:12;;;;;;;15.58;11.97;;;;;;;10.17;78.82;100358.66;1729685;82;20924;-68
2022/10/10 06:42:41;;;;;;;12.10;10.90;;;;;;;10.21;78.49;100354.74;1729468;81;20917;-69
2022/10/10 06:45:08;;;;;;;12.90;11.38;;;;;;;10.31;78.14;100360.00;1719920;82;20903;-68
2022/10/10 06:47:35;;;;;;;13.03;11.65;;;;;;;10.25;77.32;100360.59;1719357;82;21156;-69
2022/10/10 06:50:02;;;;;;;14.28;11.12;;;;;;;10.17;77.07;100356.48;1719378;82;20922;-69
2022/10/10 06:52:28;;;;;;;14.38;11.25;;;;;;;10.21;76.87;100359.22;1732454;82;21055;-70
2022/10/10 06:54:55;;;;;;;12.40;9.95;;;;;;;10.26;76.58;100362.27;1738444;82;21023;-69
2022/10/10 06:57:21;;;;;;;11.40;10.20;;;;;;;10.36;76.34;100357.25;1740453;81;21536;-69
2022/10/10 06:59:48;;;;;;;11.20;9.50;;;;;;;10.47;76.15;100361.54;1740412;81;21252;-69
2022/10/10 07:02:16;;;;;;;11.10;9.63;;;;;;;10.57;75.90;100358.33;1740317;81;20979;-68
2022/10/10 07:04:42;;;;;;;10.65;9.30;;;;;;;10.66;75.64;100362.77;1740437;81;20982;-68
2022/10/10 07:07:09;;;;;;;11.78;9.65;;;;;;;10.70;75.22;100365.95;1740422;81;21541;-69
2022/10/10 07:09:35;;;;;;;12.50;8.65;;;;;;;10.76;75.00;100359.55;1740336;81;20982;-68
2022/10/10 07:12:03;;;;;;;11.08;9.63;;;;;;;10.90;75.03;100356.84;1740385;81;21252;-68
2022/10/10 07:14:29;;;;;;;13.28;11.28;;;;;;;11.11;75.01;100355.56;1740437;81;21464;-68
2022/10/10 07:16:56;;;;;;;10.75;9.65;;;;;;;11.46;74.45;100357.37;1740536;81;21497;-68
2022/10/10 07:19:23;;;;;;;13.78;10.32;;;;;;;11.79;74.14;100354.45;1740471;81;21014;-68
2022/10/10 07:21:50;;;;;;;10.30;9.25;;;;;;;12.14;73.12;100354.34;1740522;81;21052;-68
2022/10/10 07:24:17;;;;;;;11.53;9.58;;;;;;;12.37;71.92;100354.60;1740371;81;21141;-68
2022/10/10 07:26:43;;;;;;;10.08;8.90;;;;;;;12.51;70.74;100353.16;1740445;81;20918;-68
2022/10/10 07:29:10;;;;;;;11.33;8.80;;;;;;;12.55;69.99;100353.16;1740480;81;21638;-68
2022/10/10 07:31:36;;;;;;;10.60;8.95;;;;;;;12.66;69.60;100359.54;1740321;81;20891;-68
2022/10/10 07:34:04;;;;;;;11.80;9.63;;;;;;;12.85;69.30;100358.74;1740564;81;20887;-68
2022/10/10 07:36:31;;;;;;;10.78;9.68;;;;;;;13.06;68.58;100357.47;1740427;81;21156;-68
2022/10/10 07:38:57;;;;;;;14.80;8.85;;;;;;;13.16;67.88;100360.84;1740679;81;21452;-68
2022/10/10 07:41:25;;;;;;;14.85;8.95;;;;;;;13.26;67.22;100357.52;1722015;81;21001;-68
2022/10/10 07:43:54;;;;;;;11.03;8.80;;;;;;;13.31;66.48;100359.19;1721941;81;21484;-68
2022/10/10 07:46:21;;;;;;;8.90;8.00;;;;;;;13.38;66.03;100359.69;1721893;81;21062;-68
2022/10/10 07:48:49;;;;;;;9.78;8.78;;;;;;;13.57;65.85;100355.34;1721929;81;20938;-68
2022/10/10 07:51:15;;;;;;;8.08;7.33;;;;;;;13.84;65.85;100351.97;1721946;81;20942;-68
2022/10/10 07:53:43;;;;;;;8.48;7.67;;;;;;;14.18;65.63;100346.67;1721853;81;20902;-68
2022/10/10 07:56:11;;;;;;;10.35;9.08;;;;;;;14.70;64.80;100346.16;1721930;81;20907;-68
2022/10/10 07:58:39;;;;;;;8.55;7.65;;;;;;;15.27;63.18;100344.77;1721938;81;20931;-68
2022/10/10 08:01:09;;;;;;;7.65;6.83;;;;;;;15.75;61.51;100341.34;1721967;81;21560;-68
2022/10/10 08:03:36;;;;;;;7.83;7.00;;;;;;;16.21;59.64;100334.82;1721935;81;20989;-68
2022/10/10 08:06:04;;;;;;;10.40;7.10;;;;;;;16.66;58.49;100333.24;1721895;81;21449;-68
2022/10/10 08:08:33;;;;;;;9.88;7.28;;;;;;;17.11;56.80;100329.91;1721821;81;20947;-68
2022/10/10 08:11:00;;;;;;;8.43;6.87;;;;;;;17.51;55.10;100324.38;1721991;81;20914;-68
2022/10/10 08:13:27;;;;;;;8.70;7.75;;;;;;;17.86;53.79;100327.45;1721961;81;21252;-68
2022/10/10 08:15:53;;;;;;;11.93;7.90;;;;;;;18.24;52.76;100326.05;1721893;81;21013;-67
2022/10/10 08:18:20;;;;;;;8.50;7.17;;;;;;;18.70;51.65;100322.73;1721876;83;20923;-69
2022/10/10 08:20:46;;;;;;;8.25;7.10;;;;;;;19.16;50.49;100323.70;1721812;83;21017;-68
2022/10/10 08:23:13;;;;;;;9.75;7.10;;;;;;;19.62;49.18;100327.80;1721885;81;20887;-68
2022/10/10 08:25:39;;;;;;;9.05;6.70;;;;;;;20.00;47.57;100330.64;1721889;81;21403;-68
2022/10/10 08:28:06;;;;;;;7.42;6.37;;;;;;;20.33;46.44;100330.09;1721761;81;20950;-69
2022/10/10 08:30:33;;;;;;;9.18;7.62;;;;;;;20.53;45.48;100332.20;1721834;81;20891;-69
2022/10/10 08:33:00;;;;;;;10.05;7.53;;;;;;;20.47;44.98;100331.69;1719194;82;21002;-69
2022/10/10 08:35:26;;;;;;;8.33;7.47;;;;;;;20.25;44.79;100327.63;1716392;83;21006;-70
2022/10/10 08:37:53;;;;;;;9.08;7.62;;;;;;;19.90;45.15;100337.00;1716189;82;22205;-69
2022/10/10 08:40:20;;;;;;;8.90;7.85;;;;;;;19.64;45.60;100335.16;1716202;83;20915;-70
2022/10/10 08:42:51;;;;;;;9.83;8.00;;;;;;;19.52;46.09;100334.97;1716265;82;20997;-69
2022/10/10 08:45:22;;;;;;;14.35;12.85;;;;;;;19.58;45.95;100346.27;1716137;83;20986;-69
2022/10/10 08:48:00;;;;;;;20.77;14.78;;;;;;;19.52;45.22;100348.46;1716231;82;20994;-69
2022/10/10 08:50:48;;;;;;;15.63;13.53;;;;;;;19.42;45.51;100351.25;1747305;81;21090;-69
2022/10/10 08:53:47;;;;;;;13.75;12.40;;;;;;;19.41;45.24;100346.89;1716183;82;20949;-68
2022/10/10 08:56:19;;;;;;;14.58;13.10;;;;;;;19.61;44.86;100337.75;1747493;81;20879;-69
2022/10/10 08:58:48;;;;;;;14.50;13.22;;;;;;;20.13;43.38;100342.77;1716167;82;20957;-69
2022/10/10 09:01:23;;;;;;;15.25;13.65;;;;;;;19.83;43.33;100346.98;1747570;81;20930;-70
2022/10/10 09:03:54;;;;;;;12.68;11.40;;;;;;;19.42;43.69;100348.02;1716183;82;21314;-70
2022/10/10 09:06:44;;;;;;;12.53;11.12;;;;;;;19.10;44.27;100344.23;1747491;81;20890;-68
2022/10/10 09:09:35;;;;;;;11.80;10.78;;;;;;;19.40;44.36;100339.30;1702511;82;20938;-69
2022/10/10 09:12:22;;;;;;;11.25;10.15;;;;;;;19.59;43.79;100345.75;1747613;81;21394;-69
2022/10/10 09:15:13;;;;;;;11.80;10.70;;;;;;;19.84;43.81;100339.21;1716508;83;20994;-69
2022/10/10 09:18:22;;;;;;;9.53;8.63;;;;;;;20.41;42.90;100339.84;1727020;81;21469;-68
2022/10/10 09:21:15;;;;;;;11.08;8.83;;;;;;;21.01;41.88;100331.23;1716110;82;20946;-69
2022/10/10 09:23:52;;;;;;;10.68;8.65;;;;;;;21.90;40.43;100335.88;1716299;83;20934;-69
2022/10/10 09:26:25;;;;;;;9.20;8.30;;;;;;;22.62;39.01;100327.00;1716132;82;20962;-68
2022/10/10 09:29:20;;;;;;;9.58;8.65;;;;;;;23.21;37.66;100320.73;1717289;83;21069;-69
2022/10/10 09:31:50;;;;;;;8.25;7.45;;;;;;;23.59;36.86;100314.94;1708541;83;21352;-69
2022/10/10 09:34:49;;;;;;;16.48;8.13;;;;;;;24.03;35.95;100317.59;1709847;83;21090;-69
2022/10/10 09:37:29;;;;;;;10.05;7.87;;;;;;;24.46;35.15;100313.94;1709321;82;21029;-70
2022/10/10 09:40:08;;;;;;;9.55;8.48;;;;;;;25.02;34.22;100310.98;1709537;83;21002;-69
2022/10/10 09:42:38;;;;;;;9.83;8.03;;;;;;;25.49;33.23;100304.76;1721885;81;21076;-69
2022/10/10 09:45:20;;;;;;;10.40;9.10;;;;;;;25.76;32.56;100298.37;1721801;81;21068;-69
2022/10/10 09:47:49;;;;;;;8.93;8.03;;;;;;;25.76;31.60;100297.02;1721850;81;20946;-69
2022/10/10 09:50:16;;;;;;;10.28;8.90;;;;;;;25.54;31.81;100292.05;1721931;81;20903;-68
2022/10/10 09:52:43;;;;;;;12.07;8.78;;;;;;;25.47;31.84;100291.37;1721869;81;20942;-68
2022/10/10 09:55:37;;;;;;;11.73;9.75;;;;;;;25.37;32.06;100293.09;1721926;81;20998;-69
2022/10/10 09:58:18;;;;;;;10.40;9.40;;;;;;;25.60;31.89;100288.31;1722011;81;21444;-68
2022/10/10 10:00:44;;;;;;;10.23;9.18;;;;;;;25.70;31.40;100287.66;1725413;83;20958;-69
2022/10/10 10:03:14;;;;;;;10.85;9.45;;;;;;;25.73;31.36;100280.36;1721995;81;20855;-69
2022/10/10 10:05:45;;;;;;;10.35;9.35;;;;;;;25.46;31.65;100278.84;1721947;81;20910;-69
2022/10/10 10:08:24;;;;;;;9.58;8.58;;;;;;;24.90;32.59;100274.81;1722060;81;20895;-68
2022/10/10 10:10:51;;;;;;;10.08;9.05;;;;;;;24.40;33.27;100282.26;1722091;81;21217;-70
2022/10/10 10:13:33;;;;;;;12.47;9.38;;;;;;;23.77;34.11;100282.77;1721970;81;20986;-69
2022/10/10 10:16:10;;;;;;;12.35;10.82;;;;;;;23.18;34.64;100283.71;1702593;81;20985;-68
2022/10/10 10:18:46;;;;;;;13.53;10.45;;;;;;;22.57;35.42;100286.67;1721892;81;20946;-70
2022/10/10 10:21:25;;;;;;;11.83;10.63;;;;;;;22.18;36.00;100281.73;1722023;81;21432;-69
2022/10/10 10:24:04;;;;;;;12.05;8.23;;;;;;;21.88;36.52;100279.77;1722085;81;21147;-68
2022/10/10 10:26:44;;;;;;;13.45;8.65;;;;;;;21.70;37.06;100278.34;1722527;81;20894;-69
2022/10/10 10:29:30;;;;;;;9.53;8.53;;;;;;;21.47;37.46;100277.63;1721962;81;20954;-68
2022/10/10 10:32:24;;;;;;;9.95;8.98;;;;;;;21.19;37.76;100285.36;1722197;81;20978;-69
2022/10/10 10:35:27;;;;;;;8.63;7.58;;;;;;;21.06;38.35;100279.18;1716403;82;20947;-68
2022/10/10 10:38:11;;;;;;;8.25;6.75;;;;;;;21.01;38.63;100278.49;1716275;83;21154;-69
2022/10/10 10:41:01;;;;;;;9.33;7.22;;;;;;;20.99;38.63;100278.41;1696697;83;20942;-69
2022/10/10 10:44:02;;;;;;;11.93;8.00;;;;;;;21.03;38.41;100279.61;1716397;82;20986;-69
2022/10/10 10:46:50;;;;;;;7.50;6.65;;;;;;;21.08;38.32;100271.70;1721244;82;21018;-69
2022/10/10 10:49:39;;;;;;;9.18;5.70;;;;;;;21.04;38.20;100271.81;1721387;82;21583;-69
2022/10/10 10:52:20;;;;;;;6.65;5.95;;;;;;;20.99;38.34;100265.69;1716281;83;21171;-68
2022/10/10 10:55:19;;;;;;;9.50;5.17;;;;;;;20.97;38.05;100268.31;1737545;81;20957;-69
2022/10/10 10:58:30;;;;;;;10.63;4.97;;;;;;;20.84;37.82;100260.59;1718454;82;21028;-69
2022/10/10 11:01:00;;;;;;;10.63;4.70;;;;;;;20.87;37.80;100268.28;1719437;82;21512;-70
2022/10/10 11:03:50;;;;;;;8.70;4.75;;;;;;;21.00;37.61;100265.17;1719409;82;21532;-70
2022/10/10 11:06:39;;;;;;;5.95;3.47;;;;;;;21.04;37.47;100256.94;1720257;81;22483;-68
2022/10/10 11:09:26;;;;;;;3.60;2.77;;;;;;;20.98;36.91;100257.28;1718858;82;20966;-68
2022/10/10 11:12:19;;;;;;;4.55;2.90;;;;;;;20.73;36.64;100254.52;1712753;82;21436;-67
2022/10/10 11:15:07;;;;;;;4.03;3.35;;;;;;;20.45;36.87;100258.63;1719385;83;21006;-68
2022/10/10 11:17:41;;;;;;;5.40;4.22;;;;;;;20.31;37.61;100256.50;1719460;82;20910;-70
2022/10/10 11:20:37;;;;;;;5.22;3.60;;;;;;;20.43;37.15;100256.67;1719348;82;21796;-67
2022/10/10 11:23:23;;;;;;;5.10;2.75;;;;;;;20.52;36.62;100253.50;1719514;82;21065;-69
2022/10/10 11:25:53;;;;;;;4.58;3.25;;;;;;;20.57;36.43;100249.63;1719635;82;21578;-70
2022/10/10 11:28:27;;;;;;;4.97;2.77;;;;;;;20.61;36.52;100249.52;1719443;82;20934;-69
2022/10/10 11:31:02;;;;;;;4.78;2.50;;;;;;;20.57;36.34;100248.27;1719485;82;20906;-68
2022/10/10 11:33:39;;;;;;;2.72;2.33;;;;;;;20.49;36.55;100243.11;1719286;83;21136;-69
2022/10/10 11:36:18;;;;;;;4.45;1.90;;;;;;;20.43;36.57;100234.54;1701743;82;20914;-68
2022/10/10 11:39:04;;;;;;;2.33;1.55;;;;;;;20.39;36.51;100240.59;1719421;82;21984;-69
2022/10/10 11:41:53;;;;;;;1.90;1.57;;;;;;;20.13;36.37;100232.03;1719571;83;20922;-68
2022/10/10 11:44:34;;;;;;;3.87;1.62;;;;;;;19.87;36.44;100233.47;1719444;82;20930;-68